sensor_id;sensor_type;location;lat;lon;timestamp;pressure;altitude;pressure_sealevel;temperature;humidity
42125;BME280;27787;44.594;11.046;2023-04-06T00:02:23;101433.00;;;5.45;47.07
42125;BME280;27787;44.594;11.046;2023-04-06T00:05:07;101428.53;;;5.42;47.17
42125;BME280;27787;44.594;11.046;2023-04-06T00:07:52;101428.59;;;5.44;46.74
42125;BME280;27787;44.594;11.046;2023-04-06T00:10:37;101435.41;;;5.39;46.48
42125;BME280;27787;44.594;11.046;2023-04-06T00:13:22;101428.44;;;5.39;46.58
42125;BME280;27787;44.594;11.046;2023-04-06T00:16:06;101422.25;;;5.37;46.55
42125;BME280;27787;44.594;11.046;2023-04-06T00:18:51;101419.53;;;5.34;46.38
42125;BME280;27787;44.594;11.046;2023-04-06T00:21:35;101422.78;;;5.28;46.49
42125;BME280;27787;44.594;11.046;2023-04-06T00:24:19;101422.56;;;5.22;46.43
42125;BME280;27787;44.594;11.046;2023-04-06T00:27:04;101418.91;;;5.19;46.62
42125;BME280;27787;44.594;11.046;2023-04-06T00:29:48;101425.03;;;5.19;46.44
42125;BME280;27787;44.594;11.046;2023-04-06T00:32:34;101419.56;;;5.13;47.01
42125;BME280;27787;44.594;11.046;2023-04-06T00:35:18;101430.81;;;5.11;46.89
42125;BME280;27787;44.594;11.046;2023-04-06T00:38:03;101429.72;;;5.06;47.06
42125;BME280;27787;44.594;11.046;2023-04-06T00:40:47;101425.13;;;5.00;46.94
42125;BME280;27787;44.594;11.046;2023-04-06T00:43:31;101422.34;;;4.95;47.47
42125;BME280;27787;44.594;11.046;2023-04-06T00:46:15;101423.22;;;4.96;47.56
42125;BME280;27787;44.594;11.046;2023-04-06T00:49:00;101427.75;;;5.00;47.30
42125;BME280;27787;44.594;11.046;2023-04-06T00:51:44;101432.47;;;5.09;46.88
42125;BME280;27787;44.594;11.046;2023-04-06T00:54:29;101429.75;;;5.07;46.49
42125;BME280;27787;44.594;11.046;2023-04-06T00:57:16;101435.31;;;5.15;46.49
42125;BME280;27787;44.594;11.046;2023-04-06T01:00:02;101424.97;;;5.18;46.53
42125;BME280;27787;44.594;11.046;2023-04-06T01:02:47;101425.13;;;5.21;46.38
42125;BME280;27787;44.594;11.046;2023-04-06T01:05:36;101429.41;;;5.20;46.16
42125;BME280;27787;44.594;11.046;2023-04-06T01:08:26;101429.38;;;5.19;46.00
42125;BME280;27787;44.594;11.046;2023-04-06T01:11:18;101428.34;;;5.15;46.54
42125;BME280;27787;44.594;11.046;2023-04-06T01:14:04;101422.81;;;5.08;47.01
42125;BME280;27787;44.594;11.046;2023-04-06T01:17:03;101419.72;;;4.95;46.98
42125;BME280;27787;44.594;11.046;2023-04-06T01:19:51;101425.28;;;4.82;47.53
42125;BME280;27787;44.594;11.046;2023-04-06T01:22:43;101415.28;;;4.72;47.66
42125;BME280;27787;44.594;11.046;2023-04-06T01:25:29;101417.69;;;4.67;48.50
42125;BME280;27787;44.594;11.046;2023-04-06T01:28:25;101421.06;;;4.65;48.85
42125;BME280;27787;44.594;11.046;2023-04-06T01:31:21;101404.41;;;4.63;48.98
42125;BME280;27787;44.594;11.046;2023-04-06T01:34:09;101399.97;;;4.60;49.19
42125;BME280;27787;44.594;11.046;2023-04-06T01:36:53;101399.63;;;4.53;49.70
42125;BME280;27787;44.594;11.046;2023-04-06T01:39:43;101402.69;;;4.42;49.56
42125;BME280;27787;44.594;11.046;2023-04-06T01:42:35;101407.53;;;4.33;49.78
42125;BME280;27787;44.594;11.046;2023-04-06T01:45:19;101408.22;;;4.29;50.44
42125;BME280;27787;44.594;11.046;2023-04-06T01:48:04;101409.13;;;4.30;50.13
42125;BME280;27787;44.594;11.046;2023-04-06T01:50:48;101406.44;;;4.28;50.19
42125;BME280;27787;44.594;11.046;2023-04-06T01:53:38;101404.53;;;4.24;49.68
42125;BME280;27787;44.594;11.046;2023-04-06T01:56:25;101402.75;;;4.23;49.79
42125;BME280;27787;44.594;11.046;2023-04-06T01:59:20;101398.53;;;4.27;49.82
42125;BME280;27787;44.594;11.046;2023-04-06T02:02:04;101391.56;;;4.27;50.08
42125;BME280;27787;44.594;11.046;2023-04-06T02:04:50;101395.16;;;4.29;50.60
42125;BME280;27787;44.594;11.046;2023-04-06T02:07:34;101394.47;;;4.33;50.38
42125;BME280;27787;44.594;11.046;2023-04-06T02:10:19;101390.19;;;4.35;50.06
42125;BME280;27787;44.594;11.046;2023-04-06T02:13:03;101388.28;;;4.31;50.04
42125;BME280;27787;44.594;11.046;2023-04-06T02:15:48;101386.56;;;4.32;50.19
42125;BME280;27787;44.594;11.046;2023-04-06T02:18:33;101389.25;;;4.33;50.32
42125;BME280;27787;44.594;11.046;2023-04-06T02:21:17;101390.84;;;4.30;50.41
42125;BME280;27787;44.594;11.046;2023-04-06T02:24:04;101391.56;;;4.27;50.13
42125;BME280;27787;44.594;11.046;2023-04-06T02:26:48;101388.00;;;4.25;50.13
42125;BME280;27787;44.594;11.046;2023-04-06T02:29:32;101388.84;;;4.24;49.88
42125;BME280;27787;44.594;11.046;2023-04-06T02:32:18;101394.13;;;4.26;50.07
42125;BME280;27787;44.594;11.046;2023-04-06T02:35:02;101388.00;;;4.25;50.36
42125;BME280;27787;44.594;11.046;2023-04-06T02:37:48;101388.78;;;4.23;50.65
42125;BME280;27787;44.594;11.046;2023-04-06T02:40:32;101385.16;;;4.19;50.71
42125;BME280;27787;44.594;11.046;2023-04-06T02:43:27;101379.88;;;4.18;50.82
42125;BME280;27787;44.594;11.046;2023-04-06T02:46:27;101382.31;;;4.14;50.86
42125;BME280;27787;44.594;11.046;2023-04-06T02:49:11;101385.00;;;4.16;50.16
42125;BME280;27787;44.594;11.046;2023-04-06T02:51:56;101384.25;;;4.19;50.12
42125;BME280;27787;44.594;11.046;2023-04-06T02:54:44;101377.31;;;4.19;50.76
42125;BME280;27787;44.594;11.046;2023-04-06T02:57:29;101382.59;;;4.21;51.06
42125;BME280;27787;44.594;11.046;2023-04-06T03:00:14;101385.16;;;4.19;51.25
42125;BME280;27787;44.594;11.046;2023-04-06T03:02:59;101392.03;;;4.17;51.00
42125;BME280;27787;44.594;11.046;2023-04-06T03:05:44;101388.31;;;4.12;51.18
42125;BME280;27787;44.594;11.046;2023-04-06T03:08:29;101387.28;;;4.08;50.88
42125;BME280;27787;44.594;11.046;2023-04-06T03:11:14;101395.06;;;4.07;50.19
42125;BME280;27787;44.594;11.046;2023-04-06T03:14:00;101395.06;;;4.07;49.97
42125;BME280;27787;44.594;11.046;2023-04-06T03:16:45;101394.13;;;4.05;49.90
42125;BME280;27787;44.594;11.046;2023-04-06T03:19:32;101396.78;;;4.06;49.95
42125;BME280;27787;44.594;11.046;2023-04-06T03:22:19;101399.19;;;4.02;49.95
42125;BME280;27787;44.594;11.046;2023-04-06T03:25:05;101402.56;;;3.99;50.08
42125;BME280;27787;44.594;11.046;2023-04-06T03:27:50;101413.00;;;3.99;50.32
42125;BME280;27787;44.594;11.046;2023-04-06T03:30:37;101410.28;;;3.96;50.36
42125;BME280;27787;44.594;11.046;2023-04-06T03:33:22;101418.09;;;3.96;50.63
42125;BME280;27787;44.594;11.046;2023-04-06T03:36:10;101417.97;;;3.93;51.19
42125;BME280;27787;44.594;11.046;2023-04-06T03:38:58;101410.81;;;3.89;51.34
42125;BME280;27787;44.594;11.046;2023-04-06T03:41:43;101425.44;;;3.85;51.59
42125;BME280;27787;44.594;11.046;2023-04-06T03:44:46;101421.19;;;3.88;51.58
42125;BME280;27787;44.594;11.046;2023-04-06T03:47:31;101419.63;;;3.91;51.89
42125;BME280;27787;44.594;11.046;2023-04-06T03:50:19;101424.84;;;3.91;53.09
42125;BME280;27787;44.594;11.046;2023-04-06T03:53:04;101429.03;;;4.07;54.72
42125;BME280;27787;44.594;11.046;2023-04-06T03:55:48;101432.19;;;4.19;55.40
42125;BME280;27787;44.594;11.046;2023-04-06T03:58:33;101423.16;;;4.12;56.24
42125;BME280;27787;44.594;11.046;2023-04-06T04:01:18;101428.69;;;3.99;57.17
42125;BME280;27787;44.594;11.046;2023-04-06T04:04:02;101429.09;;;3.89;58.49
42125;BME280;27787;44.594;11.046;2023-04-06T04:06:48;101420.03;;;3.81;59.24
42125;BME280;27787;44.594;11.046;2023-04-06T04:09:33;101428.97;;;3.86;55.55
42125;BME280;27787;44.594;11.046;2023-04-06T04:12:18;101431.94;;;3.94;53.34
42125;BME280;27787;44.594;11.046;2023-04-06T04:15:02;101429.56;;;4.00;54.76
42125;BME280;27787;44.594;11.046;2023-04-06T04:17:47;101433.84;;;3.98;54.92
42125;BME280;27787;44.594;11.046;2023-04-06T04:20:33;101429.44;;;3.97;54.13
42125;BME280;27787;44.594;11.046;2023-04-06T04:23:18;101434.66;;;3.97;54.82
42125;BME280;27787;44.594;11.046;2023-04-06T04:26:03;101436.44;;;3.98;53.83
42125;BME280;27787;44.594;11.046;2023-04-06T04:28:47;101434.72;;;3.98;53.36
42125;BME280;27787;44.594;11.046;2023-04-06T04:31:32;101445.13;;;3.97;53.84
42125;BME280;27787;44.594;11.046;2023-04-06T04:34:20;101441.31;;;3.90;54.71
42125;BME280;27787;44.594;11.046;2023-04-06T04:37:08;101443.31;;;3.76;55.99
42125;BME280;27787;44.594;11.046;2023-04-06T04:40:06;101429.03;;;3.68;56.16
42125;BME280;27787;44.594;11.046;2023-04-06T04:43:00;101434.78;;;3.61;56.20
42125;BME280;27787;44.594;11.046;2023-04-06T04:45:48;101424.97;;;3.55;56.33
42125;BME280;27787;44.594;11.046;2023-04-06T04:48:43;101424.97;;;3.55;56.29
42125;BME280;27787;44.594;11.046;2023-04-06T04:51:27;101431.97;;;3.57;56.34
42125;BME280;27787;44.594;11.046;2023-04-06T04:54:23;101429.69;;;3.64;55.66
42125;BME280;27787;44.594;11.046;2023-04-06T04:57:08;101428.72;;;3.62;55.21
42125;BME280;27787;44.594;11.046;2023-04-06T05:00:00;101429.34;;;3.57;54.97
42125;BME280;27787;44.594;11.046;2023-04-06T05:02:47;101436.06;;;3.51;55.51
42125;BME280;27787;44.594;11.046;2023-04-06T05:05:38;101439.44;;;3.49;55.38
42125;BME280;27787;44.594;11.046;2023-04-06T05:08:24;101439.59;;;3.52;55.64
42125;BME280;27787;44.594;11.046;2023-04-06T05:11:09;101439.09;;;3.61;54.90
42125;BME280;27787;44.594;11.046;2023-04-06T05:13:59;101440.97;;;3.63;54.58
42125;BME280;27787;44.594;11.046;2023-04-06T05:16:43;101439.25;;;3.64;53.65
42125;BME280;27787;44.594;11.046;2023-04-06T05:19:29;101437.38;;;3.61;53.61
42125;BME280;27787;44.594;11.046;2023-04-06T05:22:14;101445.09;;;3.58;53.52
42125;BME280;27787;44.594;11.046;2023-04-06T05:25:02;101442.03;;;3.49;53.44
42125;BME280;27787;44.594;11.046;2023-04-06T05:27:48;101439.22;;;3.44;53.45
42125;BME280;27787;44.594;11.046;2023-04-06T05:30:46;101439.28;;;3.46;52.71
42125;BME280;27787;44.594;11.046;2023-04-06T05:33:31;101438.00;;;3.55;52.03
42125;BME280;27787;44.594;11.046;2023-04-06T05:36:22;101430.50;;;3.63;51.17
42125;BME280;27787;44.594;11.046;2023-04-06T05:39:07;101430.00;;;3.70;50.84
42125;BME280;27787;44.594;11.046;2023-04-06T05:42:03;101435.69;;;3.81;49.98
42125;BME280;27787;44.594;11.046;2023-04-06T05:44:57;101431.69;;;3.89;49.71
42125;BME280;27787;44.594;11.046;2023-04-06T05:47:42;101435.44;;;3.94;49.45
42125;BME280;27787;44.594;11.046;2023-04-06T05:50:37;101440.78;;;3.97;49.32
42125;BME280;27787;44.594;11.046;2023-04-06T05:53:21;101445.66;;;4.09;49.11
42125;BME280;27787;44.594;11.046;2023-04-06T05:56:11;101441.53;;;4.14;48.64
42125;BME280;27787;44.594;11.046;2023-04-06T05:58:55;101435.75;;;4.21;48.58
42125;BME280;27787;44.594;11.046;2023-04-06T06:01:44;101445.72;;;4.30;48.64
42125;BME280;27787;44.594;11.046;2023-04-06T06:04:31;101446.31;;;4.43;48.50
42125;BME280;27787;44.594;11.046;2023-04-06T06:07:17;101451.31;;;4.39;48.11
42125;BME280;27787;44.594;11.046;2023-04-06T06:10:08;101454.72;;;4.36;48.64
42125;BME280;27787;44.594;11.046;2023-04-06T06:12:55;101453.16;;;4.41;48.71
42125;BME280;27787;44.594;11.046;2023-04-06T06:15:39;101463.91;;;4.48;48.30
42125;BME280;27787;44.594;11.046;2023-04-06T06:18:24;101459.16;;;4.58;48.21
42125;BME280;27787;44.594;11.046;2023-04-06T06:21:13;101464.00;;;4.70;47.83
42125;BME280;27787;44.594;11.046;2023-04-06T06:23:58;101470.38;;;4.77;47.49
42125;BME280;27787;44.594;11.046;2023-04-06T06:26:44;101469.88;;;4.85;47.45
42125;BME280;27787;44.594;11.046;2023-04-06T06:29:35;101477.72;;;4.85;47.55
42125;BME280;27787;44.594;11.046;2023-04-06T06:32:26;101473.03;;;4.78;48.31
42125;BME280;27787;44.594;11.046;2023-04-06T06:35:13;101469.41;;;4.74;48.23
42125;BME280;27787;44.594;11.046;2023-04-06T06:37:59;101465.56;;;4.66;48.26
42125;BME280;27787;44.594;11.046;2023-04-06T06:40:48;101475.97;;;4.65;48.85
42125;BME280;27787;44.594;11.046;2023-04-06T06:43:40;101473.34;;;4.65;49.01
42125;BME280;27787;44.594;11.046;2023-04-06T06:46:26;101473.34;;;4.65;48.87
42125;BME280;27787;44.594;11.046;2023-04-06T06:49:11;101464.84;;;4.69;49.67
42125;BME280;27787;44.594;11.046;2023-04-06T06:51:56;101474.59;;;4.73;48.79
42125;BME280;27787;44.594;11.046;2023-04-06T06:54:40;101471.53;;;4.83;48.31
42125;BME280;27787;44.594;11.046;2023-04-06T06:57:25;101468.38;;;4.92;48.45
42125;BME280;27787;44.594;11.046;2023-04-06T07:00:10;101477.97;;;5.12;47.66
42125;BME280;27787;44.594;11.046;2023-04-06T07:02:55;101478.13;;;5.38;46.57
42125;BME280;27787;44.594;11.046;2023-04-06T07:05:47;101473.59;;;5.56;45.93
42125;BME280;27787;44.594;11.046;2023-04-06T07:08:36;101474.44;;;5.77;45.93
42125;BME280;27787;44.594;11.046;2023-04-06T07:11:21;101475.03;;;5.93;45.22
42125;BME280;27787;44.594;11.046;2023-04-06T07:14:06;101478.16;;;6.06;44.53
42125;BME280;27787;44.594;11.046;2023-04-06T07:16:50;101480.34;;;6.18;44.30
42125;BME280;27787;44.594;11.046;2023-04-06T07:19:34;101478.97;;;6.28;44.19
42125;BME280;27787;44.594;11.046;2023-04-06T07:22:19;101483.53;;;6.33;44.40
42125;BME280;27787;44.594;11.046;2023-04-06T07:25:04;101484.66;;;6.40;44.17
42125;BME280;27787;44.594;11.046;2023-04-06T07:27:49;101481.25;;;6.42;44.81
42125;BME280;27787;44.594;11.046;2023-04-06T07:30:34;101479.94;;;6.55;45.64
42125;BME280;27787;44.594;11.046;2023-04-06T07:33:19;101476.69;;;6.62;44.89
42125;BME280;27787;44.594;11.046;2023-04-06T07:36:04;101478.38;;;6.60;44.72
42125;BME280;27787;44.594;11.046;2023-04-06T07:38:48;101470.66;;;6.65;44.13
42125;BME280;27787;44.594;11.046;2023-04-06T07:41:33;101476.31;;;6.77;44.42
42125;BME280;27787;44.594;11.046;2023-04-06T07:44:18;101477.44;;;6.84;44.30
42125;BME280;27787;44.594;11.046;2023-04-06T07:47:04;101477.53;;;6.87;44.33
42125;BME280;27787;44.594;11.046;2023-04-06T07:49:48;101482.78;;;6.87;44.57
42125;BME280;27787;44.594;11.046;2023-04-06T07:52:34;101482.09;;;6.92;44.30
42125;BME280;27787;44.594;11.046;2023-04-06T07:55:19;101486.69;;;6.99;44.29
42125;BME280;27787;44.594;11.046;2023-04-06T07:58:03;101485.19;;;7.06;44.55
42125;BME280;27787;44.594;11.046;2023-04-06T08:00:48;101487.28;;;7.16;44.13
42125;BME280;27787;44.594;11.046;2023-04-06T08:03:35;101493.50;;;7.20;44.17
42125;BME280;27787;44.594;11.046;2023-04-06T08:06:20;101484.75;;;7.19;44.01
42125;BME280;27787;44.594;11.046;2023-04-06T08:09:07;101487.41;;;7.21;42.29
42125;BME280;27787;44.594;11.046;2023-04-06T08:11:51;101486.53;;;7.20;41.96
42125;BME280;27787;44.594;11.046;2023-04-06T08:14:36;101481.31;;;7.22;42.88
42125;BME280;27787;44.594;11.046;2023-04-06T08:17:20;101477.00;;;7.24;43.15
42125;BME280;27787;44.594;11.046;2023-04-06T08:20:05;101478.19;;;7.33;43.01
42125;BME280;27787;44.594;11.046;2023-04-06T08:22:50;101475.63;;;7.35;41.38
42125;BME280;27787;44.594;11.046;2023-04-06T08:25:36;101474.81;;;7.37;41.89
42125;BME280;27787;44.594;11.046;2023-04-06T08:28:20;101475.13;;;7.47;42.77
42125;BME280;27787;44.594;11.046;2023-04-06T08:31:05;101476.16;;;7.52;42.19
42125;BME280;27787;44.594;11.046;2023-04-06T08:33:50;101465.09;;;7.62;42.72
42125;BME280;27787;44.594;11.046;2023-04-06T08:36:34;101467.22;;;7.75;41.79
42125;BME280;27787;44.594;11.046;2023-04-06T08:39:19;101476.22;;;7.82;40.77
42125;BME280;27787;44.594;11.046;2023-04-06T08:42:19;101476.63;;;7.95;40.81
42125;BME280;27787;44.594;11.046;2023-04-06T08:45:04;101470.06;;;8.11;40.49
42125;BME280;27787;44.594;11.046;2023-04-06T08:47:50;101467.75;;;8.22;39.53
42125;BME280;27787;44.594;11.046;2023-04-06T08:50:35;101470.59;;;8.31;39.95
42125;BME280;27787;44.594;11.046;2023-04-06T08:53:20;101473.50;;;8.39;39.47
42125;BME280;27787;44.594;11.046;2023-04-06T08:56:05;101469.94;;;8.37;38.20
42125;BME280;27787;44.594;11.046;2023-04-06T08:58:50;101466.44;;;8.38;38.91
42125;BME280;27787;44.594;11.046;2023-04-06T09:01:39;101470.16;;;8.46;38.36
42125;BME280;27787;44.594;11.046;2023-04-06T09:04:27;101462.34;;;8.47;38.07
42125;BME280;27787;44.594;11.046;2023-04-06T09:07:10;101463.34;;;8.52;38.01
42125;BME280;27787;44.594;11.046;2023-04-06T09:09:55;101461.81;;;8.61;37.84
42125;BME280;27787;44.594;11.046;2023-04-06T09:12:39;101453.28;;;8.71;37.62
42125;BME280;27787;44.594;11.046;2023-04-06T09:15:24;101462.34;;;8.82;37.25
42125;BME280;27787;44.594;11.046;2023-04-06T09:18:08;101466.06;;;8.89;36.85
42125;BME280;27787;44.594;11.046;2023-04-06T09:21:06;101459.22;;;8.97;36.92
42125;BME280;27787;44.594;11.046;2023-04-06T09:24:00;101456.78;;;9.04;37.26
42125;BME280;27787;44.594;11.046;2023-04-06T09:26:46;101450.84;;;9.11;37.45
42125;BME280;27787;44.594;11.046;2023-04-06T09:29:31;101454.56;;;9.21;37.85
42125;BME280;27787;44.594;11.046;2023-04-06T09:32:15;101449.50;;;9.30;38.15
42125;BME280;27787;44.594;11.046;2023-04-06T09:35:10;101442.78;;;9.43;37.96
42125;BME280;27787;44.594;11.046;2023-04-06T09:37:54;101445.63;;;9.52;37.87
42125;BME280;27787;44.594;11.046;2023-04-06T09:40:50;101435.25;;;9.60;37.05
42125;BME280;27787;44.594;11.046;2023-04-06T09:43:34;101425.78;;;9.68;36.82
42125;BME280;27787;44.594;11.046;2023-04-06T09:46:21;101432.78;;;9.67;36.26
42125;BME280;27787;44.594;11.046;2023-04-06T09:49:07;101435.56;;;9.75;36.41
42125;BME280;27787;44.594;11.046;2023-04-06T09:52:03;101425.16;;;9.81;36.80
42125;BME280;27787;44.594;11.046;2023-04-06T09:54:49;101420.91;;;9.88;36.78
42125;BME280;27787;44.594;11.046;2023-04-06T10:00:22;101418.47;;;9.97;35.40
42125;BME280;27787;44.594;11.046;2023-04-06T10:06:14;101408.13;;;10.08;35.18
42125;BME280;27787;44.594;11.046;2023-04-06T10:09:06;101402.91;;;10.11;35.19
42125;BME280;27787;44.594;11.046;2023-04-06T10:11:54;101403.81;;;10.13;35.08
42125;BME280;27787;44.594;11.046;2023-04-06T10:14:40;101399.53;;;10.16;35.08
42125;BME280;27787;44.594;11.046;2023-04-06T10:17:25;101395.19;;;10.20;35.65
42125;BME280;27787;44.594;11.046;2023-04-06T10:20:17;101393.50;;;10.22;35.36
42125;BME280;27787;44.594;11.046;2023-04-06T10:28:54;101388.47;;;10.36;35.70
42125;BME280;27787;44.594;11.046;2023-04-06T10:31:42;101385.13;;;10.44;35.76
42125;BME280;27787;44.594;11.046;2023-04-06T10:34:34;101375.50;;;10.49;35.35
42125;BME280;27787;44.594;11.046;2023-04-06T10:37:19;101376.44;;;10.53;35.28
42125;BME280;27787;44.594;11.046;2023-04-06T10:40:04;101373.91;;;10.57;35.65
42125;BME280;27787;44.594;11.046;2023-04-06T10:42:49;101378.47;;;10.68;36.00
42125;BME280;27787;44.594;11.046;2023-04-06T10:45:35;101375.06;;;10.75;36.03
42125;BME280;27787;44.594;11.046;2023-04-06T10:48:21;101365.44;;;10.80;35.63
42125;BME280;27787;44.594;11.046;2023-04-06T10:51:13;101370.78;;;10.81;35.14
42125;BME280;27787;44.594;11.046;2023-04-06T10:53:58;101368.16;;;10.81;35.06
42125;BME280;27787;44.594;11.046;2023-04-06T10:56:43;101367.31;;;10.84;35.30
42125;BME280;27787;44.594;11.046;2023-04-06T10:59:28;101355.94;;;10.89;35.51
42125;BME280;27787;44.594;11.046;2023-04-06T11:02:19;101349.03;;;10.98;35.64
42125;BME280;27787;44.594;11.046;2023-04-06T11:05:07;101340.31;;;11.05;35.84
42125;BME280;27787;44.594;11.046;2023-04-06T11:07:52;101342.22;;;11.15;35.42
42125;BME280;27787;44.594;11.046;2023-04-06T11:10:35;101341.44;;;11.20;35.35
42125;BME280;27787;44.594;11.046;2023-04-06T11:13:20;101331.81;;;11.27;35.53
42125;BME280;27787;44.594;11.046;2023-04-06T11:16:04;101328.34;;;11.31;35.58
42125;BME280;27787;44.594;11.046;2023-04-06T11:21:44;101329.41;;;11.44;35.47
42125;BME280;27787;44.594;11.046;2023-04-06T11:24:32;101325.94;;;11.48;34.96
42125;BME280;27787;44.594;11.046;2023-04-06T11:27:17;101318.94;;;11.51;34.77
42125;BME280;27787;44.594;11.046;2023-04-06T11:30:02;101310.16;;;11.54;34.29
42125;BME280;27787;44.594;11.046;2023-04-06T11:32:46;101310.13;;;11.52;34.08
42125;BME280;27787;44.594;11.046;2023-04-06T11:35:31;101309.28;;;11.57;34.81
42125;BME280;27787;44.594;11.046;2023-04-06T11:38:18;101305.88;;;11.64;35.03
42125;BME280;27787;44.594;11.046;2023-04-06T11:41:04;101312.94;;;11.66;34.55
42125;BME280;27787;44.594;11.046;2023-04-06T11:43:54;101303.22;;;11.62;34.29
42125;BME280;27787;44.594;11.046;2023-04-06T11:46:39;101301.44;;;11.61;34.52
42125;BME280;27787;44.594;11.046;2023-04-06T11:49:31;101296.16;;;11.63;34.42
42125;BME280;27787;44.594;11.046;2023-04-06T11:52:24;101295.34;;;11.70;34.16
42125;BME280;27787;44.594;11.046;2023-04-06T11:57:58;101283.97;;;11.75;34.33
42125;BME280;27787;44.594;11.046;2023-04-06T12:00:43;101274.31;;;11.79;34.37
42125;BME280;27787;44.594;11.046;2023-04-06T12:03:29;101285.78;;;11.79;34.19
42125;BME280;27787;44.594;11.046;2023-04-06T12:06:13;101282.22;;;11.77;34.20
42125;BME280;27787;44.594;11.046;2023-04-06T12:08:57;101272.59;;;11.81;34.38
42125;BME280;27787;44.594;11.046;2023-04-06T12:11:41;101279.63;;;11.79;34.21
42125;BME280;27787;44.594;11.046;2023-04-06T12:14:26;101276.09;;;11.80;34.68
42125;BME280;27787;44.594;11.046;2023-04-06T12:17:10;101272.66;;;11.87;35.02
42125;BME280;27787;44.594;11.046;2023-04-06T12:19:54;101265.69;;;11.97;33.77
42125;BME280;27787;44.594;11.046;2023-04-06T12:22:39;101270.16;;;12.01;33.97
42125;BME280;27787;44.594;11.046;2023-04-06T12:25:23;101270.28;;;12.18;33.73
42125;BME280;27787;44.594;11.046;2023-04-06T12:28:07;101262.31;;;12.13;33.74
42125;BME280;27787;44.594;11.046;2023-04-06T12:30:52;101256.16;;;12.16;33.58
42125;BME280;27787;44.594;11.046;2023-04-06T12:33:36;101247.34;;;12.15;33.09
42125;BME280;27787;44.594;11.046;2023-04-06T12:36:21;101236.75;;;12.15;33.65
42125;BME280;27787;44.594;11.046;2023-04-06T12:39:06;101232.34;;;12.16;33.56
42125;BME280;27787;44.594;11.046;2023-04-06T12:41:50;101239.44;;;12.23;33.66
42125;BME280;27787;44.594;11.046;2023-04-06T12:44:34;101228.03;;;12.25;33.65
42125;BME280;27787;44.594;11.046;2023-04-06T12:47:19;101232.47;;;12.34;33.58
42125;BME280;27787;44.594;11.046;2023-04-06T12:50:05;101231.66;;;12.41;32.48
42125;BME280;27787;44.594;11.046;2023-04-06T12:52:50;101220.28;;;12.53;32.18
42125;BME280;27787;44.594;11.046;2023-04-06T12:55:34;101219.34;;;12.46;32.65
42125;BME280;27787;44.594;11.046;2023-04-06T12:58:20;101215.81;;;12.49;33.55
42125;BME280;27787;44.594;11.046;2023-04-06T13:01:06;101210.59;;;12.55;33.52
42125;BME280;27787;44.594;11.046;2023-04-06T13:03:51;101205.31;;;12.59;32.83
42125;BME280;27787;44.594;11.046;2023-04-06T13:06:36;101207.13;;;12.63;32.40
42125;BME280;27787;44.594;11.046;2023-04-06T13:09:20;101199.19;;;12.69;32.92
42125;BME280;27787;44.594;11.046;2023-04-06T13:12:05;101201.91;;;12.79;32.61
42125;BME280;27787;44.594;11.046;2023-04-06T13:14:49;101194.84;;;12.84;31.82
42125;BME280;27787;44.594;11.046;2023-04-06T13:17:36;101190.44;;;12.86;31.76
42125;BME280;27787;44.594;11.046;2023-04-06T13:20:20;101196.66;;;12.89;31.81
42125;BME280;27787;44.594;11.046;2023-04-06T13:23:05;101186.09;;;13.02;32.26
42125;BME280;27787;44.594;11.046;2023-04-06T13:26:05;101185.25;;;13.13;32.51
42125;BME280;27787;44.594;11.046;2023-04-06T13:28:50;101182.69;;;13.27;32.73
42125;BME280;27787;44.594;11.046;2023-04-06T13:31:35;101176.56;;;13.42;31.94
42125;BME280;27787;44.594;11.046;2023-04-06T13:34:19;101178.31;;;13.47;31.47
42125;BME280;27787;44.594;11.046;2023-04-06T13:37:04;101174.81;;;13.59;32.44
42125;BME280;27787;44.594;11.046;2023-04-06T13:39:48;101170.41;;;13.72;31.89
42125;BME280;27787;44.594;11.046;2023-04-06T13:42:33;101164.25;;;13.80;31.44
42125;BME280;27787;44.594;11.046;2023-04-06T13:45:19;101159.78;;;13.88;31.34
42125;BME280;27787;44.594;11.046;2023-04-06T13:48:04;101158.03;;;13.98;31.12
42125;BME280;27787;44.594;11.046;2023-04-06T13:50:49;101157.16;;;14.21;29.74
42125;BME280;27787;44.594;11.046;2023-04-06T13:53:33;101150.91;;;14.31;29.71
42125;BME280;27787;44.594;11.046;2023-04-06T13:56:18;101149.16;;;14.33;29.48
42125;BME280;27787;44.594;11.046;2023-04-06T13:59:03;101147.34;;;14.42;28.91
42125;BME280;27787;44.594;11.046;2023-04-06T14:01:47;101143.81;;;14.40;28.58
42125;BME280;27787;44.594;11.046;2023-04-06T14:04:32;101135.88;;;14.28;28.89
42125;BME280;27787;44.594;11.046;2023-04-06T14:07:17;101135.00;;;14.34;29.54
42125;BME280;27787;44.594;11.046;2023-04-06T14:10:02;101133.19;;;14.53;28.83
42125;BME280;27787;44.594;11.046;2023-04-06T14:12:46;101131.44;;;14.49;28.88
42125;BME280;27787;44.594;11.046;2023-04-06T14:15:30;101124.34;;;14.52;29.32
42125;BME280;27787;44.594;11.046;2023-04-06T14:18:14;101122.53;;;14.63;29.50
42125;BME280;27787;44.594;11.046;2023-04-06T14:20:58;101125.16;;;14.75;28.68
42125;BME280;27787;44.594;11.046;2023-04-06T14:23:42;101118.91;;;14.86;27.95
42125;BME280;27787;44.594;11.046;2023-04-06T14:26:27;101116.25;;;14.87;30.09
42125;BME280;27787;44.594;11.046;2023-04-06T14:29:11;101117.06;;;14.95;29.42
42125;BME280;27787;44.594;11.046;2023-04-06T14:31:56;101117.94;;;15.00;29.99
42125;BME280;27787;44.594;11.046;2023-04-06T14:34:43;101114.38;;;15.06;29.22
42125;BME280;27787;44.594;11.046;2023-04-06T14:37:28;101111.69;;;15.11;28.22
42125;BME280;27787;44.594;11.046;2023-04-06T14:40:12;101111.69;;;15.12;28.06
42125;BME280;27787;44.594;11.046;2023-04-06T14:42:57;101118.75;;;15.16;27.87
42125;BME280;27787;44.594;11.046;2023-04-06T14:45:41;101116.09;;;15.15;27.82